createdAt,value
2019-04-04T00:00:16.940Z,85.8
2019-04-04T00:01:17.517Z,85.5
2019-04-04T00:02:19.655Z,85.8
2019-04-04T00:03:16.987Z,85.7
2019-04-04T00:04:17.298Z,85.8
2019-04-04T00:05:16.615Z,85.8
2019-04-04T00:06:16.924Z,85.8
2019-04-04T00:07:17.242Z,85.8
2019-04-04T00:08:16.555Z,85.9
2019-04-04T00:09:16.855Z,85.8
2019-04-04T00:10:17.179Z,85.8
2019-04-04T00:11:17.232Z,85.9
2019-04-04T00:12:16.547Z,86.1
2019-04-04T00:13:16.833Z,86.0
2019-04-04T00:14:17.157Z,85.7
2019-04-04T00:15:16.452Z,85.9
2019-04-04T00:16:16.761Z,86.0
2019-04-04T00:17:17.058Z,85.9
2019-04-04T00:18:16.352Z,86.0
2019-04-04T00:19:16.667Z,85.9
2019-04-04T00:20:16.981Z,86.2
2019-04-04T00:21:17.011Z,86.2
2019-04-04T00:22:16.362Z,85.8
2019-04-04T00:23:16.749Z,85.7
2019-04-04T00:24:17.050Z,85.8
2019-04-04T00:25:16.362Z,85.7
2019-04-04T00:26:16.626Z,85.8
2019-04-04T00:27:16.922Z,85.8
2019-04-04T00:28:17.219Z,86.0
2019-04-04T00:29:17.916Z,86.2
2019-04-04T00:30:18.554Z,86.1
2019-04-04T00:31:19.741Z,86.0
2019-04-04T00:32:17.062Z,86.2
2019-04-04T00:33:16.368Z,86.0
2019-04-04T00:34:16.681Z,85.9
2019-04-04T00:35:16.982Z,85.8
2019-04-04T00:36:17.269Z,85.8
2019-04-04T00:37:16.531Z,85.8
2019-04-04T00:38:16.841Z,86.0
2019-04-04T00:39:17.124Z,86.0
2019-04-04T00:40:16.423Z,85.9
2019-04-04T00:41:16.480Z,85.9
2019-04-04T00:42:17.581Z,85.8
2019-04-04T00:43:16.882Z,85.7
2019-04-04T00:44:17.183Z,85.6
2019-04-04T00:45:16.508Z,85.5
2019-04-04T00:46:16.816Z,85.7
2019-04-04T00:47:17.130Z,85.5
2019-04-04T00:48:16.447Z,85.7
2019-04-04T00:49:16.769Z,85.8
2019-04-04T00:50:17.086Z,85.7
2019-04-04T00:51:17.095Z,85.7
2019-04-04T00:52:16.429Z,85.6
2019-04-04T00:53:16.737Z,85.4
2019-04-04T00:54:17.040Z,85.6
2019-04-04T00:55:16.521Z,85.3
2019-04-04T00:56:18.841Z,85.6
2019-04-04T00:57:19.320Z,85.4
2019-04-04T00:58:16.775Z,85.6
2019-04-04T00:59:17.076Z,85.4
2019-04-04T01:00:16.407Z,85.7
2019-04-04T01:01:16.838Z,85.6
2019-04-04T01:02:17.139Z,85.8
2019-04-04T01:03:16.439Z,85.7
2019-04-04T01:04:17.011Z,85.8
2019-04-04T01:05:16.317Z,86.0
2019-04-04T01:06:16.617Z,86.0
2019-04-04T01:07:16.918Z,85.9
2019-04-04T01:08:17.208Z,86.0
2019-04-04T01:09:16.502Z,86.0
2019-04-04T01:10:19.571Z,86.2
2019-04-04T01:11:20.871Z,86.3
2019-04-04T01:12:17.278Z,86.2
2019-04-04T01:13:16.609Z,86.3
2019-04-04T01:14:16.902Z,86.2
2019-04-04T01:15:17.197Z,86.1
2019-04-04T01:16:16.497Z,86.2
2019-04-04T01:17:16.799Z,86.2
2019-04-04T01:18:17.097Z,86.2
2019-04-04T01:19:16.397Z,86.2
2019-04-04T01:20:20.721Z,86.2
2019-04-04T01:21:16.752Z,86.4
2019-04-04T01:22:17.082Z,86.5
2019-04-04T01:23:16.396Z,86.5
2019-04-04T01:24:16.679Z,86.7
2019-04-04T01:25:16.976Z,86.5
2019-04-04T01:26:17.286Z,86.4
2019-04-04T01:27:16.580Z,86.5
2019-04-04T01:28:16.881Z,86.8
2019-04-04T01:29:17.191Z,86.9
2019-04-04T01:30:16.513Z,87.0
2019-04-04T01:31:16.563Z,86.9
2019-04-04T01:32:17.708Z,86.7
2019-04-04T01:33:20.436Z,86.5
2019-04-04T01:34:16.815Z,86.8
2019-04-04T01:35:17.130Z,86.5
2019-04-04T01:36:16.402Z,86.0
2019-04-04T01:37:16.710Z,86.0
2019-04-04T01:38:17.010Z,86.2
2019-04-04T01:39:16.311Z,86.3
2019-04-04T01:40:16.655Z,86.7
2019-04-04T01:41:16.679Z,86.7
2019-04-04T01:42:16.987Z,86.7
2019-04-04T01:43:16.289Z,87.0
2019-04-04T01:44:16.590Z,86.8
2019-04-04T01:45:16.850Z,86.9
2019-04-04T01:46:17.160Z,87.1
2019-04-04T01:47:17.719Z,87.0
2019-04-04T01:48:19.310Z,86.8
2019-04-04T01:49:16.681Z,86.8
2019-04-04T01:50:17.000Z,86.8
2019-04-04T01:51:17.037Z,86.6
2019-04-04T01:52:16.335Z,86.5
2019-04-04T01:53:16.639Z,86.6
2019-04-04T01:54:16.971Z,86.8
2019-04-04T01:55:17.268Z,86.8
2019-04-04T01:56:16.578Z,86.7
2019-04-04T01:57:16.859Z,86.6
2019-04-04T01:58:17.145Z,86.8
2019-04-04T01:59:16.441Z,87.0
2019-04-04T02:00:16.749Z,86.9
2019-04-04T02:01:17.216Z,86.9
2019-04-04T02:02:18.658Z,87.0
2019-04-04T02:03:16.969Z,87.2
2019-04-04T02:04:17.236Z,87.4
2019-04-04T02:05:16.543Z,87.3
2019-04-04T02:06:16.818Z,87.2
2019-04-04T02:07:17.137Z,87.3
2019-04-04T02:08:16.608Z,87.3
2019-04-04T02:09:16.894Z,87.2
2019-04-04T02:10:17.217Z,87.2
2019-04-04T02:11:17.238Z,87.3
2019-04-04T02:12:16.539Z,87.2
2019-04-04T02:13:16.865Z,87.2
2019-04-04T02:14:19.707Z,87.3
2019-04-04T02:15:17.070Z,87.2
2019-04-04T02:16:17.577Z,87.3
2019-04-04T02:17:16.883Z,87.2
2019-04-04T02:18:17.205Z,87.2
2019-04-04T02:19:16.496Z,87.2
2019-04-04T02:20:16.866Z,87.2
2019-04-04T02:21:16.819Z,87.3
2019-04-04T02:22:17.124Z,87.3
2019-04-04T02:23:16.437Z,87.3
2019-04-04T02:24:16.738Z,87.3
2019-04-04T02:25:17.009Z,87.3
2019-04-04T02:26:16.310Z,87.4
2019-04-04T02:27:16.608Z,87.3
2019-04-04T02:28:16.928Z,87.3
2019-04-04T02:29:17.230Z,87.2
2019-04-04T02:30:16.735Z,87.3
2019-04-04T02:31:21.793Z,87.3
2019-04-04T02:32:17.208Z,87.4
2019-04-04T02:33:16.500Z,87.5
2019-04-04T02:34:16.803Z,87.5
2019-04-04T02:35:17.129Z,87.7
2019-04-04T02:36:17.516Z,87.7
2019-04-04T02:37:21.873Z,87.4
2019-04-04T02:38:16.298Z,87.6
2019-04-04T02:39:16.618Z,87.7
2019-04-04T02:40:16.903Z,87.8
2019-04-04T02:41:16.999Z,87.8
2019-04-04T02:42:20.928Z,87.7
2019-04-04T02:43:16.557Z,87.7
2019-04-04T02:44:16.860Z,87.5
2019-04-04T02:45:17.179Z,87.5
2019-04-04T02:46:16.508Z,87.4
2019-04-04T02:47:18.399Z,87.5
2019-04-04T02:48:16.769Z,87.6
2019-04-04T02:49:17.093Z,87.6
2019-04-04T02:50:16.446Z,87.8
2019-04-04T02:51:16.486Z,87.6
2019-04-04T02:52:16.788Z,87.7
2019-04-04T02:53:20.666Z,87.5
2019-04-04T02:54:17.007Z,87.8
2019-04-04T02:55:16.304Z,87.8
2019-04-04T02:56:16.616Z,87.7
2019-04-04T02:57:16.910Z,87.7
2019-04-04T02:58:17.217Z,87.7
2019-04-04T02:59:21.883Z,87.7
2019-04-04T03:00:16.327Z,87.7
2019-04-04T03:01:16.398Z,87.5
2019-04-04T03:02:16.704Z,87.7
2019-04-04T03:03:16.989Z,87.7
2019-04-04T03:04:16.318Z,87.6
2019-04-04T03:05:20.105Z,87.5
2019-04-04T03:06:16.472Z,87.4
2019-04-04T03:07:16.776Z,87.6
2019-04-04T03:08:17.095Z,87.5
2019-04-04T03:09:16.402Z,87.7
2019-04-04T03:10:17.019Z,87.8
2019-04-04T03:11:22.660Z,87.8
2019-04-04T03:12:17.101Z,88.0
2019-04-04T03:13:16.410Z,88.2
2019-04-04T03:14:16.685Z,88.0
2019-04-04T03:15:16.990Z,88.2
2019-04-04T03:16:16.307Z,88.2
2019-04-04T03:17:16.621Z,88.0
2019-04-04T03:18:16.940Z,87.9
2019-04-04T03:19:17.240Z,87.8
2019-04-04T03:20:17.753Z,87.7
2019-04-04T03:21:16.599Z,87.8
2019-04-04T03:22:16.910Z,87.8
2019-04-04T03:23:17.245Z,87.7
2019-04-04T03:24:16.550Z,87.6
2019-04-04T03:25:16.870Z,87.6
2019-04-04T03:26:20.626Z,87.8
2019-04-04T03:27:16.986Z,87.7
2019-04-04T03:28:16.310Z,87.7
2019-04-04T03:29:16.625Z,87.7
2019-04-04T03:30:17.760Z,87.8
2019-04-04T03:31:17.015Z,87.8
2019-04-04T03:32:17.712Z,87.9
2019-04-04T03:33:17.121Z,87.9
2019-04-04T03:34:16.468Z,88.0
2019-04-04T03:35:16.824Z,88.1
2019-04-04T03:36:17.128Z,88.2
2019-04-04T03:37:16.456Z,88.1
2019-04-04T03:38:16.759Z,88.2
2019-04-04T03:39:20.608Z,88.2
2019-04-04T03:40:16.961Z,88.0
2019-04-04T03:41:17.015Z,88.0
2019-04-04T03:42:16.289Z,88.1
2019-04-04T03:43:17.127Z,88.1
2019-04-04T03:44:20.693Z,87.9
2019-04-04T03:45:17.068Z,88.0
2019-04-04T03:46:16.378Z,88.0
2019-04-04T03:47:16.714Z,88.0
2019-04-04T03:48:18.920Z,87.9
2019-04-04T03:49:17.309Z,87.8
2019-04-04T03:50:16.621Z,87.8
2019-04-04T03:51:16.727Z,87.8
2019-04-04T03:52:17.048Z,87.5
2019-04-04T03:53:17.749Z,87.4
2019-04-04T03:54:17.064Z,87.5
2019-04-04T03:55:16.361Z,87.7
2019-04-04T03:56:16.921Z,87.6
2019-04-04T03:57:17.361Z,87.5
2019-04-04T03:58:16.761Z,87.5
2019-04-04T03:59:17.089Z,87.8
2019-04-04T04:00:16.442Z,87.8
2019-04-04T04:01:16.481Z,87.6
2019-04-04T04:02:18.781Z,87.6
2019-04-04T04:03:17.104Z,87.2
2019-04-04T04:04:16.406Z,87.2
2019-04-04T04:05:16.707Z,87.2
2019-04-04T04:06:17.010Z,87.3
2019-04-04T04:07:16.321Z,87.2
2019-04-04T04:08:22.107Z,87.2
2019-04-04T04:09:16.566Z,87.1
2019-04-04T04:10:16.874Z,87.2
2019-04-04T04:11:16.909Z,86.7
2019-04-04T04:12:17.196Z,86.3
2019-04-04T04:13:17.667Z,86.3
2019-04-04T04:14:17.013Z,86.2
2019-04-04T04:15:16.307Z,86.5
2019-04-04T04:16:16.710Z,86.7
2019-04-04T04:17:17.104Z,86.7
2019-04-04T04:18:21.477Z,86.8
2019-04-04T04:19:16.988Z,86.8
2019-04-04T04:20:17.303Z,86.7
2019-04-04T04:21:16.348Z,86.8
2019-04-04T04:22:19.598Z,86.8
2019-04-04T04:23:16.923Z,86.9
2019-04-04T04:24:17.282Z,86.9
2019-04-04T04:25:16.642Z,86.8
2019-04-04T04:26:16.936Z,86.8
2019-04-04T04:27:17.235Z,86.8
2019-04-04T04:28:20.783Z,86.8
2019-04-04T04:29:17.177Z,86.8
2019-04-04T04:30:16.522Z,86.8
2019-04-04T04:31:16.588Z,86.8
2019-04-04T04:32:22.645Z,86.8
2019-04-04T04:33:17.091Z,86.6
2019-04-04T04:34:16.390Z,86.4
2019-04-04T04:35:16.705Z,86.4
2019-04-04T04:36:17.030Z,86.5
2019-04-04T04:37:20.517Z,86.5
2019-04-04T04:38:16.398Z,86.3
2019-04-04T04:39:16.733Z,86.3
2019-04-04T04:40:16.583Z,86.1
2019-04-04T04:41:21.293Z,86.2
2019-04-04T04:42:16.667Z,86.3
2019-04-04T04:43:17.009Z,86.0
2019-04-04T04:44:16.307Z,86.2
2019-04-04T04:45:16.621Z,86.3
2019-04-04T04:46:18.117Z,86.6
2019-04-04T04:47:16.425Z,86.7
2019-04-04T04:48:16.734Z,86.6
2019-04-04T04:49:17.069Z,86.6
2019-04-04T04:50:16.407Z,86.5
2019-04-04T04:51:16.411Z,86.7
2019-04-04T04:52:16.703Z,86.8
2019-04-04T04:53:19.671Z,86.5
2019-04-04T04:54:17.033Z,86.5
2019-04-04T04:55:16.339Z,86.6
2019-04-04T04:56:17.723Z,86.5
2019-04-04T04:57:30.111Z,86.2
2019-04-04T04:58:16.618Z,86.2
2019-04-04T04:59:16.928Z,86.2
2019-04-04T05:00:17.247Z,86.3
2019-04-04T05:01:19.092Z,86.2
2019-04-04T05:02:16.515Z,86.0
2019-04-04T05:03:16.812Z,86.0
2019-04-04T05:04:17.111Z,86.2
2019-04-04T05:05:16.441Z,86.2
2019-04-04T05:06:16.768Z,86.4
2019-04-04T05:07:17.069Z,86.3
2019-04-04T05:08:16.403Z,86.2
2019-04-04T05:09:16.731Z,86.2
2019-04-04T05:10:17.055Z,86.1
2019-04-04T05:11:19.736Z,86.0
2019-04-04T05:12:17.079Z,86.0
2019-04-04T05:13:16.382Z,86.3
2019-04-04T05:14:16.752Z,86.6
2019-04-04T05:15:17.047Z,86.3
2019-04-04T05:16:16.357Z,86.4
2019-04-04T05:17:16.678Z,86.3
2019-04-04T05:18:17.209Z,86.5
2019-04-04T05:19:18.963Z,86.5
2019-04-04T05:20:16.405Z,86.2
2019-04-04T05:21:27.395Z,86.3
2019-04-04T05:22:16.927Z,86.1
2019-04-04T05:23:17.259Z,86.2
2019-04-04T05:24:18.837Z,86.2
2019-04-04T05:25:17.189Z,86.4
2019-04-04T05:26:16.546Z,87.0
2019-04-04T05:27:16.845Z,86.4
2019-04-04T05:28:17.197Z,86.4
2019-04-04T05:29:16.517Z,86.4
2019-04-04T05:30:20.507Z,86.3
2019-04-04T05:31:18.886Z,86.2
2019-04-04T05:32:17.238Z,86.2
2019-04-04T05:33:16.566Z,86.2
2019-04-04T05:34:16.883Z,86.4
2019-04-04T05:35:17.211Z,86.3
2019-04-04T05:36:16.563Z,86.2
2019-04-04T05:37:17.045Z,86.3
2019-04-04T05:38:16.355Z,86.2
2019-04-04T05:39:18.813Z,86.1
2019-04-04T05:40:17.140Z,86.2
2019-04-04T05:41:17.206Z,86.5
2019-04-04T05:42:16.542Z,86.3
2019-04-04T05:43:16.901Z,86.4
2019-04-04T05:44:17.247Z,86.2
2019-04-04T05:45:16.548Z,86.2
2019-04-04T05:46:19.687Z,86.2
2019-04-04T05:47:17.040Z,86.3
2019-04-04T05:48:16.337Z,86.2
2019-04-04T05:49:16.746Z,85.9
2019-04-04T05:50:17.155Z,85.9
2019-04-04T05:51:17.059Z,86.0
2019-04-04T05:52:16.389Z,86.0
2019-04-04T05:53:16.692Z,86.0
2019-04-04T05:54:17.004Z,85.8
2019-04-04T05:55:16.306Z,85.8
2019-04-04T05:56:16.645Z,85.6
2019-04-04T05:57:20.630Z,85.9
2019-04-04T05:58:17.151Z,85.9
2019-04-04T05:59:16.500Z,85.7
2019-04-04T06:00:16.810Z,85.8
2019-04-04T06:01:16.943Z,86.0
2019-04-04T06:02:17.255Z,86.0
2019-04-04T06:03:16.572Z,85.8
2019-04-04T06:04:20.093Z,85.7
2019-04-04T06:05:16.549Z,85.7
2019-04-04T06:06:16.856Z,85.8
2019-04-04T06:07:17.203Z,86.1
2019-04-04T06:08:16.547Z,85.8
2019-04-04T06:09:16.873Z,86.0
2019-04-04T06:10:19.209Z,85.8
2019-04-04T06:11:17.191Z,85.5
2019-04-04T06:12:16.483Z,85.4
2019-04-04T06:13:16.791Z,85.3
2019-04-04T06:14:17.054Z,85.2
2019-04-04T06:15:16.359Z,85.4
2019-04-04T06:16:16.670Z,85.3
2019-04-04T06:17:16.961Z,85.4
2019-04-04T06:18:17.266Z,85.2
2019-04-04T06:19:16.576Z,84.8
2019-04-04T06:20:16.892Z,84.8
2019-04-04T06:21:19.238Z,84.7
2019-04-04T06:22:16.581Z,84.8
2019-04-04T06:23:16.891Z,85.0
2019-04-04T06:24:17.211Z,84.8
2019-04-04T06:25:16.543Z,84.4
2019-04-04T06:26:16.847Z,84.2
2019-04-04T06:27:17.137Z,84.0
2019-04-04T06:28:16.462Z,84.0
2019-04-04T06:29:18.013Z,84.3
2019-04-04T06:30:20.064Z,84.6
2019-04-04T06:31:16.399Z,84.3
2019-04-04T06:32:16.717Z,84.2
2019-04-04T06:33:17.025Z,84.2
2019-04-04T06:34:16.359Z,84.2
2019-04-04T06:35:16.694Z,83.8
2019-04-04T06:36:18.398Z,83.8
2019-04-04T06:37:20.120Z,83.8
2019-04-04T06:38:16.945Z,83.7
2019-04-04T06:39:17.257Z,83.9
2019-04-04T06:40:16.565Z,83.6
2019-04-04T06:41:16.629Z,83.1
2019-04-04T06:42:16.942Z,82.5
2019-04-04T06:43:17.267Z,82.2
2019-04-04T06:44:16.557Z,82.2
2019-04-04T06:45:16.881Z,82.7
2019-04-04T06:46:22.796Z,82.5
2019-04-04T06:47:17.239Z,82.5
2019-04-04T06:48:16.553Z,82.2
2019-04-04T06:49:16.881Z,82.0
2019-04-04T06:50:17.190Z,81.6
2019-04-04T06:51:17.234Z,80.6
2019-04-04T06:52:19.186Z,79.6
2019-04-04T06:53:16.533Z,79.2
2019-04-04T06:54:16.841Z,79.8
2019-04-04T06:55:17.101Z,80.2
2019-04-04T06:56:16.379Z,80.7
2019-04-04T06:57:16.682Z,80.1
2019-04-04T06:58:17.358Z,80.1
2019-04-04T06:59:16.654Z,80.2
2019-04-04T07:00:16.957Z,79.9
2019-04-04T07:01:17.005Z,79.8
2019-04-04T07:02:16.337Z,79.0
2019-04-04T07:03:16.651Z,78.2
2019-04-04T07:04:17.554Z,77.0
2019-04-04T07:05:16.853Z,76.2
2019-04-04T07:06:17.161Z,76.5
2019-04-04T07:07:16.488Z,76.3
2019-04-04T07:08:16.782Z,75.8
2019-04-04T07:09:19.296Z,76.6
2019-04-04T07:10:16.668Z,76.5
2019-04-04T07:11:21.887Z,75.5
2019-04-04T07:12:27.990Z,75.5
2019-04-04T07:13:26.550Z,75.8
2019-04-04T07:14:17.171Z,75.5
2019-04-04T07:15:16.492Z,75.5
2019-04-04T07:16:16.786Z,75.0
2019-04-04T07:17:17.103Z,74.0
2019-04-04T07:18:16.428Z,74.4
2019-04-04T07:19:16.780Z,74.6
2019-04-04T07:20:17.626Z,74.3
2019-04-04T07:21:20.660Z,74.4
2019-04-04T07:22:17.006Z,74.2
2019-04-04T07:23:16.309Z,74.0
2019-04-04T07:24:16.634Z,73.4
2019-04-04T07:25:16.962Z,73.5
2019-04-04T07:26:17.288Z,73.3
2019-04-04T07:27:16.943Z,73.1
2019-04-04T07:28:19.655Z,71.3
2019-04-04T07:29:17.030Z,70.9
2019-04-04T07:30:16.331Z,70.8
2019-04-04T07:31:16.425Z,70.1
2019-04-04T07:32:16.730Z,70.0
2019-04-04T07:33:17.051Z,70.8
2019-04-04T07:34:16.374Z,72.5
2019-04-04T07:35:18.034Z,72.0
2019-04-04T07:36:20.751Z,70.2
2019-04-04T07:37:17.155Z,69.6
2019-04-04T07:38:16.424Z,69.0
2019-04-04T07:39:16.742Z,68.2
2019-04-04T07:40:20.481Z,68.5
2019-04-04T07:41:17.085Z,69.0
2019-04-04T07:42:16.429Z,69.0
2019-04-04T07:43:19.878Z,68.3
2019-04-04T07:44:16.350Z,67.5
2019-04-04T07:45:16.648Z,66.6
2019-04-04T07:46:17.374Z,67.2
2019-04-04T07:47:16.904Z,69.0
2019-04-04T07:48:18.702Z,69.3
2019-04-04T07:49:16.993Z,69.4
2019-04-04T07:50:16.318Z,67.1
2019-04-04T07:51:16.356Z,66.3
2019-04-04T07:52:17.543Z,65.9
2019-04-04T07:53:16.888Z,65.4
2019-04-04T07:54:17.198Z,65.6
2019-04-04T07:55:16.523Z,65.9
2019-04-04T07:56:16.826Z,65.1
2019-04-04T07:57:20.239Z,65.1
2019-04-04T07:58:16.570Z,66.2
2019-04-04T07:59:16.877Z,65.6
2019-04-04T08:00:17.245Z,64.8
2019-04-04T08:01:17.224Z,64.8
2019-04-04T08:02:16.540Z,63.9
2019-04-04T08:03:16.821Z,64.0
2019-04-04T08:04:17.130Z,64.5
2019-04-04T08:05:16.431Z,65.2
2019-04-04T08:06:16.715Z,64.1
2019-04-04T08:07:17.015Z,64.4
2019-04-04T08:08:16.310Z,64.0
2019-04-04T08:09:16.666Z,64.7
2019-04-04T08:10:21.251Z,64.2
2019-04-04T08:11:17.017Z,64.3
2019-04-04T08:12:16.340Z,63.4
2019-04-04T08:13:16.623Z,62.4
2019-04-04T08:14:16.951Z,61.8
2019-04-04T08:15:17.243Z,62.0
2019-04-04T08:16:16.567Z,62.1
2019-04-04T08:17:19.216Z,61.5
2019-04-04T08:18:16.540Z,62.4
2019-04-04T08:19:16.848Z,62.9
2019-04-04T08:20:17.182Z,62.8
2019-04-04T08:21:17.226Z,61.7
2019-04-04T08:22:16.827Z,61.2
2019-04-04T08:23:17.158Z,61.1
2019-04-04T08:24:16.473Z,61.2
2019-04-04T08:25:16.784Z,62.5
2019-04-04T08:26:17.099Z,61.5
2019-04-04T08:27:16.442Z,61.1
2019-04-04T08:28:16.736Z,60.0
2019-04-04T08:29:17.048Z,59.5
2019-04-04T08:30:16.371Z,59.9
2019-04-04T08:31:16.408Z,59.3
2019-04-04T08:32:16.726Z,59.1
2019-04-04T08:33:17.032Z,59.4
2019-04-04T08:34:16.347Z,59.0
2019-04-04T08:35:16.658Z,59.0
2019-04-04T08:36:16.962Z,59.5
2019-04-04T08:37:17.285Z,59.9
2019-04-04T08:38:16.573Z,59.1
2019-04-04T08:39:16.871Z,58.5
2019-04-04T08:40:17.159Z,58.3
2019-04-04T08:41:17.229Z,58.5
2019-04-04T08:42:16.546Z,58.5
2019-04-04T08:43:16.838Z,57.9
2019-04-04T08:44:17.165Z,57.4
2019-04-04T08:45:16.511Z,58.1
2019-04-04T08:46:20.239Z,57.4
2019-04-04T08:47:16.647Z,55.9
2019-04-04T08:48:17.048Z,56.8
2019-04-04T08:49:16.343Z,56.6
2019-04-04T08:50:16.661Z,57.2
2019-04-04T08:51:16.720Z,56.3
2019-04-04T08:52:20.830Z,58.0
2019-04-04T08:53:17.239Z,61.5
2019-04-04T08:54:16.547Z,62.8
2019-04-04T08:55:16.897Z,63.4
2019-04-04T08:56:17.227Z,62.9
2019-04-04T08:57:16.556Z,62.4
2019-04-04T08:58:16.829Z,63.0
2019-04-04T08:59:17.154Z,64.1
2019-04-04T09:00:16.451Z,63.8
2019-04-04T09:01:16.513Z,63.6
2019-04-04T09:02:16.819Z,63.5
2019-04-04T09:03:17.138Z,63.5
2019-04-04T09:04:16.419Z,63.2
2019-04-04T09:05:16.729Z,61.7
2019-04-04T09:06:17.026Z,61.1
2019-04-04T09:07:16.336Z,62.0
2019-04-04T09:08:16.627Z,63.3
2019-04-04T09:09:16.933Z,62.9
2019-04-04T09:10:17.206Z,62.8
2019-04-04T09:11:16.306Z,62.3
2019-04-04T09:12:16.625Z,62.0
2019-04-04T09:13:16.945Z,61.4
2019-04-04T09:14:17.250Z,60.5
2019-04-04T09:15:16.536Z,61.1
2019-04-04T09:16:16.835Z,61.2
2019-04-04T09:17:17.160Z,60.4
2019-04-04T09:18:16.468Z,60.7
2019-04-04T09:19:16.802Z,60.9
2019-04-04T09:20:17.103Z,60.4
2019-04-04T09:21:17.156Z,58.5
2019-04-04T09:22:16.471Z,57.4
2019-04-04T09:23:16.767Z,57.6
2019-04-04T09:24:17.059Z,56.6
2019-04-04T09:25:16.367Z,56.0
2019-04-04T09:26:16.674Z,56.1
2019-04-04T09:27:16.945Z,57.9
2019-04-04T09:28:17.245Z,58.7
2019-04-04T09:29:16.553Z,59.5
2019-04-04T09:30:16.857Z,59.9
2019-04-04T09:31:16.899Z,60.4
2019-04-04T09:32:17.238Z,61.0
2019-04-04T09:33:16.556Z,61.5
2019-04-04T09:34:16.851Z,62.2
2019-04-04T09:35:17.146Z,62.5
2019-04-04T09:36:16.448Z,62.3
2019-04-04T09:37:16.771Z,61.5
2019-04-04T09:38:17.091Z,61.6
2019-04-04T09:39:16.391Z,62.0
2019-04-04T09:40:16.705Z,61.8
2019-04-04T09:41:16.736Z,61.9
2019-04-04T09:42:17.046Z,62.2
2019-04-04T09:43:16.350Z,62.2
2019-04-04T09:44:16.648Z,62.2
2019-04-04T09:45:16.947Z,62.2
2019-04-04T09:46:17.256Z,62.1
2019-04-04T09:47:16.556Z,61.8
2019-04-04T09:48:16.851Z,60.4
2019-04-04T09:49:17.173Z,58.5
2019-04-04T09:50:16.499Z,57.9
2019-04-04T09:51:16.550Z,58.1
2019-04-04T09:52:16.855Z,58.0
2019-04-04T09:53:17.163Z,58.0
2019-04-04T09:54:19.612Z,58.2
2019-04-04T09:55:16.956Z,58.3
2019-04-04T09:56:17.244Z,57.8
2019-04-04T09:57:16.540Z,57.8
2019-04-04T09:58:16.866Z,60.2
2019-04-04T09:59:17.134Z,60.0
2019-04-04T10:00:16.426Z,60.2
2019-04-04T10:01:16.513Z,60.0
2019-04-04T10:02:16.879Z,60.4
2019-04-04T10:03:17.172Z,60.5
2019-04-04T10:04:16.468Z,60.4
2019-04-04T10:05:16.759Z,61.6
2019-04-04T10:06:17.075Z,61.8
2019-04-04T10:07:16.382Z,62.2
2019-04-04T10:08:16.683Z,61.5
2019-04-04T10:09:17.214Z,61.9
2019-04-04T10:10:16.578Z,62.0
2019-04-04T10:11:16.578Z,61.0
2019-04-04T10:12:16.912Z,60.9
2019-04-04T10:13:17.210Z,61.6
2019-04-04T10:14:16.534Z,61.9
2019-04-04T10:15:16.848Z,62.5
2019-04-04T10:16:17.150Z,61.2
2019-04-04T10:17:16.441Z,61.8
2019-04-04T10:18:16.753Z,62.3
2019-04-04T10:19:17.056Z,62.0
2019-04-04T10:20:16.369Z,62.7
2019-04-04T10:21:16.425Z,63.5
2019-04-04T10:22:16.743Z,63.3
2019-04-04T10:23:17.037Z,62.8
2019-04-04T10:24:16.335Z,63.6
2019-04-04T10:25:16.623Z,63.6
2019-04-04T10:26:16.912Z,63.5
2019-04-04T10:27:17.263Z,63.6
2019-04-04T10:28:16.570Z,63.1
2019-04-04T10:29:16.856Z,63.1
2019-04-04T10:30:17.166Z,62.9
2019-04-04T10:31:17.210Z,63.2
2019-04-04T10:32:16.524Z,63.8
2019-04-04T10:33:16.829Z,64.2
2019-04-04T10:34:17.103Z,64.4
2019-04-04T10:35:16.413Z,64.0
2019-04-04T10:36:16.712Z,64.2
2019-04-04T10:37:17.006Z,64.0
2019-04-04T10:38:16.274Z,63.6
2019-04-04T10:39:30.167Z,64.5
2019-04-04T10:40:16.799Z,63.7
2019-04-04T10:41:16.866Z,63.6
2019-04-04T10:42:17.172Z,63.6
2019-04-04T10:43:16.482Z,64.7
2019-04-04T10:44:16.785Z,64.6
2019-04-04T10:45:17.080Z,64.7
2019-04-04T10:46:16.394Z,65.3
2019-04-04T10:47:16.683Z,65.3
2019-04-04T10:48:17.009Z,65.8
2019-04-04T10:49:16.323Z,65.2
2019-04-04T10:50:16.666Z,65.7
2019-04-04T10:51:16.777Z,65.8
2019-04-04T10:52:17.086Z,66.0
2019-04-04T10:53:16.388Z,66.2
2019-04-04T10:54:16.687Z,66.2
2019-04-04T10:55:17.015Z,65.8
2019-04-04T10:56:16.302Z,66.0
2019-04-04T10:57:16.624Z,65.2
2019-04-04T10:58:16.923Z,64.9
2019-04-04T10:59:17.241Z,65.0
2019-04-04T11:00:16.572Z,65.5
2019-04-04T11:01:16.639Z,65.2
2019-04-04T11:02:16.927Z,66.2
2019-04-04T11:03:17.233Z,66.3
2019-04-04T11:04:16.548Z,66.4
2019-04-04T11:05:16.874Z,66.9
2019-04-04T11:06:17.172Z,66.8
2019-04-04T11:07:16.456Z,66.7
2019-04-04T11:08:16.728Z,67.2
2019-04-04T11:09:17.029Z,67.2
2019-04-04T11:10:16.320Z,67.2
2019-04-04T11:11:16.402Z,67.5
2019-04-04T11:12:16.722Z,67.4
2019-04-04T11:13:17.016Z,67.7
2019-04-04T11:14:16.317Z,68.0
2019-04-04T11:15:16.622Z,68.8
2019-04-04T11:16:30.205Z,68.5
2019-04-04T11:17:16.867Z,68.5
2019-04-04T11:18:17.174Z,68.0
2019-04-04T11:19:16.485Z,67.2
2019-04-04T11:20:16.796Z,66.8
2019-04-04T11:21:16.832Z,67.5
2019-04-04T11:22:17.171Z,67.2
2019-04-04T11:23:16.475Z,67.1
2019-04-04T11:24:16.778Z,67.5
2019-04-04T11:25:17.073Z,66.8
2019-04-04T11:26:16.379Z,66.8
2019-04-04T11:27:17.792Z,66.8
2019-04-04T11:28:17.119Z,66.8
2019-04-04T11:29:16.422Z,66.7
2019-04-04T11:30:16.753Z,67.2
2019-04-04T11:31:16.814Z,67.5
2019-04-04T11:32:17.097Z,67.6
2019-04-04T11:33:16.401Z,67.1
2019-04-04T11:34:16.664Z,67.1
2019-04-04T11:35:16.964Z,67.0
2019-04-04T11:36:17.259Z,67.0
2019-04-04T11:37:16.564Z,66.5
2019-04-04T11:38:16.855Z,66.0
2019-04-04T11:39:17.157Z,66.6
2019-04-04T11:40:16.484Z,66.8
2019-04-04T11:41:16.529Z,67.2
2019-04-04T11:42:16.807Z,66.4
2019-04-04T11:43:17.115Z,66.5
2019-04-04T11:44:16.454Z,66.0
2019-04-04T11:45:16.770Z,66.2
2019-04-04T11:46:17.054Z,66.5
2019-04-04T11:47:16.357Z,66.5
2019-04-04T11:48:16.665Z,67.0
2019-04-04T11:49:16.932Z,66.7
2019-04-04T11:50:17.283Z,66.8
2019-04-04T11:51:17.257Z,66.8
2019-04-04T11:52:16.568Z,66.8
2019-04-04T11:53:16.973Z,67.0
2019-04-04T11:54:17.278Z,66.2
2019-04-04T11:55:16.594Z,66.2
2019-04-04T11:56:16.883Z,65.5
2019-04-04T11:57:17.268Z,65.1
2019-04-04T11:58:16.624Z,65.5
2019-04-04T11:59:16.950Z,65.5
2019-04-04T12:00:17.276Z,65.8
2019-04-04T12:01:16.320Z,66.3
2019-04-04T12:02:16.597Z,66.2
2019-04-04T12:03:16.890Z,66.0
2019-04-04T12:04:17.204Z,65.4
2019-04-04T12:05:16.506Z,65.7
2019-04-04T12:06:16.784Z,66.4
2019-04-04T12:07:17.108Z,65.7
2019-04-04T12:08:16.426Z,65.8
2019-04-04T12:09:16.712Z,64.9
2019-04-04T12:10:17.046Z,65.9
2019-04-04T12:11:17.072Z,66.5
2019-04-04T12:12:16.407Z,66.1
2019-04-04T12:13:16.712Z,66.7
2019-04-04T12:14:17.026Z,66.8
2019-04-04T12:15:16.329Z,66.3
2019-04-04T12:16:16.636Z,66.7
2019-04-04T12:17:16.917Z,66.5
2019-04-04T12:18:17.277Z,66.6
2019-04-04T12:19:16.581Z,66.7
2019-04-04T12:20:16.943Z,66.7
2019-04-04T12:21:16.951Z,66.7
2019-04-04T12:22:17.280Z,67.0
2019-04-04T12:23:16.585Z,67.5
2019-04-04T12:24:16.893Z,67.1
2019-04-04T12:25:17.207Z,67.0
2019-04-04T12:26:16.522Z,67.0
2019-04-04T12:27:16.809Z,66.3
2019-04-04T12:28:17.107Z,66.9
2019-04-04T12:29:16.405Z,67.0
2019-04-04T12:30:16.743Z,67.2
2019-04-04T12:31:16.749Z,66.8
2019-04-04T12:32:17.033Z,66.8
2019-04-04T12:33:16.288Z,67.2
2019-04-04T12:34:16.690Z,67.0
2019-04-04T12:35:17.012Z,66.4
2019-04-04T12:36:25.150Z,66.2
2019-04-04T12:37:16.549Z,66.2
2019-04-04T12:38:16.842Z,66.8
2019-04-04T12:39:17.148Z,66.2
2019-04-04T12:40:21.512Z,66.6
2019-04-04T12:41:16.503Z,66.4
2019-04-04T12:42:16.803Z,66.7
2019-04-04T12:43:17.124Z,66.7
2019-04-04T12:44:16.432Z,66.3
2019-04-04T12:45:16.738Z,66.1
2019-04-04T12:46:17.035Z,66.9
2019-04-04T12:47:16.320Z,68.0
2019-04-04T12:48:16.609Z,68.0
2019-04-04T12:49:16.880Z,67.2
2019-04-04T12:50:17.217Z,67.0
2019-04-04T12:51:17.227Z,67.1
2019-04-04T12:52:16.540Z,67.7
2019-04-04T12:53:16.848Z,67.8
2019-04-04T12:54:17.146Z,68.1
2019-04-04T12:55:16.462Z,68.3
2019-04-04T12:56:16.786Z,68.1
2019-04-04T12:57:17.080Z,67.9
2019-04-04T12:58:16.414Z,67.6
2019-04-04T12:59:16.757Z,68.2
2019-04-04T13:00:17.078Z,68.3
2019-04-04T13:01:17.119Z,69.1
2019-04-04T13:02:16.424Z,68.2
2019-04-04T13:03:16.730Z,68.4
2019-04-04T13:04:17.022Z,68.6
2019-04-04T13:05:16.305Z,68.7
2019-04-04T13:06:16.598Z,68.7
2019-04-04T13:07:16.913Z,69.4
2019-04-04T13:08:17.197Z,69.3
2019-04-04T13:09:16.523Z,69.1
2019-04-04T13:10:16.837Z,68.7
2019-04-04T13:11:16.903Z,68.5
2019-04-04T13:12:17.230Z,68.2
2019-04-04T13:13:16.531Z,68.8
2019-04-04T13:14:16.809Z,68.8
2019-04-04T13:15:17.127Z,68.8
2019-04-04T13:16:16.407Z,68.6
2019-04-04T13:17:16.718Z,68.2
2019-04-04T13:18:17.017Z,68.0